Time;durP1;ratioP1;P1;durP2;ratioP2;P2;SDS_P1;SDS_P2;PMS_P1;PMS_P2;Temp;Humidity;BMP_temperature;BMP_pressure;BME280_temperature;BME280_humidity;BME280_pressure;Samples;Min_cycle;Max_cycle;Signal;HPM_P1;HPM_P2
2021/07/02 00:00:25;;;;;;;1.52;0.90;;;23.90;42.20;;;;;;6300831;28;20412;-74
2021/07/02 00:03:26;;;;;;;1.73;1.13;;;23.90;42.30;;;;;;6327268;28;20032;-73
2021/07/02 00:06:27;;;;;;;3.42;0.93;;;23.90;42.40;;;;;;6308011;28;20186;-73
2021/07/02 00:09:29;;;;;;;2.80;0.93;;;23.80;42.50;;;;;;6300023;28;20373;-73
2021/07/02 00:12:30;;;;;;;1.55;0.90;;;23.80;42.60;;;;;;6299916;28;20051;-74
2021/07/02 00:15:31;;;;;;;2.38;1.05;;;23.80;42.80;;;;;;6284119;28;20064;-73
2021/07/02 00:18:32;;;;;;;3.10;1.00;;;23.70;43.00;;;;;;6300095;28;20056;-73
2021/07/02 00:21:34;;;;;;;3.10;1.00;;;23.70;43.30;;;;;;6317355;28;20465;-74
2021/07/02 00:24:35;;;;;;;6.97;1.25;;;23.70;43.60;;;;;;6300266;28;20045;-73
2021/07/02 00:27:36;;;;;;;1.55;1.17;;;23.70;43.90;;;;;;6316520;28;20040;-73
2021/07/02 00:30:37;;;;;;;3.00;1.05;;;23.70;43.70;;;;;;6300265;28;20048;-73
2021/07/02 00:33:39;;;;;;;1.15;0.98;;;23.70;43.40;;;;;;6314983;28;20036;-73
2021/07/02 00:36:40;;;;;;;4.75;0.90;;;23.70;43.20;;;;;;6328675;28;20036;-73
2021/07/02 00:39:41;;;;;;;1.92;1.10;;;23.60;43.10;;;;;;6298195;28;20071;-73
2021/07/02 00:42:42;;;;;;;2.92;0.90;;;23.60;43.10;;;;;;6295883;28;20102;-73
2021/07/02 00:45:43;;;;;;;2.90;1.25;;;23.60;43.00;;;;;;6260873;28;20067;-74
2021/07/02 00:48:45;;;;;;;2.55;1.15;;;23.50;42.90;;;;;;6299461;28;20461;-73
2021/07/02 00:51:46;;;;;;;1.48;1.00;;;23.50;42.90;;;;;;6298845;28;20113;-74
2021/07/02 00:54:52;;;;;;;2.78;1.42;;;23.50;43.00;;;;;;6300144;28;20106;-73
2021/07/02 00:57:55;;;;;;;2.15;1.00;;;23.50;43.10;;;;;;6282864;28;20068;-73
2021/07/02 01:00:57;;;;;;;1.90;1.15;;;23.40;43.20;;;;;;6299435;28;20045;-73
2021/07/02 01:03:58;;;;;;;1.15;0.93;;;23.30;43.40;;;;;;6315095;28;20047;-73
2021/07/02 01:07:04;;;;;;;1.55;1.08;;;23.30;43.40;;;;;;6282836;28;20067;-73
2021/07/02 01:10:07;;;;;;;1.58;1.00;;;23.30;43.40;;;;;;6298683;28;20037;-73
2021/07/02 01:13:14;;;;;;;2.30;0.82;;;23.20;43.50;;;;;;6297994;28;20024;-72
2021/07/02 01:16:16;;;;;;;0.97;0.80;;;23.20;43.60;;;;;;6298419;28;20021;-74
2021/07/02 01:19:17;;;;;;;2.35;1.00;;;23.10;43.60;;;;;;6282105;28;20086;-74
2021/07/02 01:22:25;;;;;;;3.20;1.00;;;23.10;43.90;;;;;;6276351;28;20462;-73
2021/07/02 01:25:32;;;;;;;1.25;0.93;;;23.10;44.20;;;;;;6296478;28;20033;-73
2021/07/02 01:28:33;;;;;;;1.73;1.25;;;23.00;44.40;;;;;;6297552;28;20210;-73
2021/07/02 01:31:34;;;;;;;1.50;1.00;;;23.00;44.40;;;;;;6298126;28;20473;-73
2021/07/02 01:34:37;;;;;;;1.63;1.00;;;23.00;44.50;;;;;;6317953;28;20043;-73
2021/07/02 01:37:38;;;;;;;4.60;1.08;;;23.00;44.70;;;;;;6323959;28;20040;-73
2021/07/02 01:40:42;;;;;;;1.60;1.10;;;22.90;44.60;;;;;;6316754;28;20044;-74
2021/07/02 01:43:45;;;;;;;1.17;0.95;;;22.90;44.60;;;;;;6262715;28;20044;-73
2021/07/02 01:46:49;;;;;;;2.42;1.42;;;22.90;44.60;;;;;;6273034;28;20512;-74
2021/07/02 01:49:51;;;;;;;1.30;1.08;;;22.90;44.60;;;;;;6256277;28;20044;-73
2021/07/02 01:52:53;;;;;;;2.05;1.42;;;22.80;44.70;;;;;;6271337;28;20040;-73
2021/07/02 01:55:55;;;;;;;1.10;0.90;;;22.80;44.70;;;;;;6308709;28;20346;-73
2021/07/02 01:58:58;;;;;;;2.30;1.05;;;22.70;44.80;;;;;;6296878;28;20357;-73
2021/07/02 02:02:20;;;;;;;6.55;1.40;;;22.70;44.90;;;;;;6299962;28;20437;-73
2021/07/02 02:05:26;;;;;;;1.27;0.90;;;22.60;45.10;;;;;;6323042;28;20149;-73
2021/07/02 02:08:28;;;;;;;1.95;0.80;;;22.60;45.30;;;;;;6303374;28;20041;-73
2021/07/02 02:11:31;;;;;;;4.30;1.50;;;22.60;45.50;;;;;;6297681;28;20153;-74
2021/07/02 02:14:34;;;;;;;1.30;1.00;;;22.50;45.60;;;;;;6314344;28;20124;-73
2021/07/02 02:17:38;;;;;;;1.23;0.90;;;22.50;46.50;;;;;;6297881;28;20042;-73
2021/07/02 02:20:40;;;;;;;2.55;1.23;;;22.50;46.10;;;;;;6297644;28;20090;-74
2021/07/02 02:23:42;;;;;;;1.80;1.00;;;22.40;46.20;;;;;;6297644;28;20400;-73
2021/07/02 02:26:44;;;;;;;1.45;1.00;;;22.40;46.40;;;;;;6284181;28;20037;-73
2021/07/02 02:29:46;;;;;;;5.20;1.10;;;22.30;46.50;;;;;;6272664;28;20044;-73
2021/07/02 02:32:47;;;;;;;2.08;1.00;;;22.30;46.50;;;;;;6293823;28;20059;-74
2021/07/02 02:36:00;;;;;;;1.98;1.27;;;22.30;46.50;;;;;;6320471;28;20038;-74
2021/07/02 02:39:04;;;;;;;2.72;1.25;;;22.30;46.90;;;;;;6321191;28;20036;-73
2021/07/02 02:42:05;;;;;;;2.00;1.40;;;22.20;47.20;;;;;;6286140;28;20072;-73
2021/07/02 02:45:07;;;;;;;2.97;1.20;;;22.20;47.50;;;;;;6254675;28;20045;-73
2021/07/02 02:48:08;;;;;;;4.28;1.70;;;22.10;47.60;;;;;;6278946;28;20111;-73
2021/07/02 02:51:14;;;;;;;12.50;1.48;;;22.10;47.80;;;;;;6295686;28;20366;-72
2021/07/02 02:54:21;;;;;;;3.10;1.15;;;22.10;47.90;;;;;;6280492;28;20036;-73
2021/07/02 02:57:24;;;;;;;1.33;1.15;;;22.00;48.00;;;;;;6283326;28;20039;-73
2021/07/02 03:00:26;;;;;;;5.10;1.30;;;22.00;48.40;;;;;;6300396;28;20090;-73
2021/07/02 03:03:27;;;;;;;2.10;1.10;;;22.00;48.60;;;;;;6311915;28;20040;-73
2021/07/02 03:06:29;;;;;;;1.65;1.27;;;22.00;49.00;;;;;;6308360;28;20036;-73
2021/07/02 03:09:31;;;;;;;1.33;1.10;;;21.90;49.30;;;;;;6301382;28;20419;-73
2021/07/02 03:12:33;;;;;;;3.13;1.40;;;21.90;49.30;;;;;;6301172;28;20056;-74
2021/07/02 03:15:35;;;;;;;2.97;1.48;;;21.90;49.40;;;;;;6298764;28;20412;-74
2021/07/02 03:18:38;;;;;;;1.63;1.25;;;21.90;49.30;;;;;;6316960;28;20043;-75
2021/07/02 03:21:41;;;;;;;6.82;1.52;;;21.90;49.30;;;;;;6299787;28;20048;-73
2021/07/02 03:24:43;;;;;;;2.40;1.40;;;21.90;49.50;;;;;;6314466;28;20397;-73
2021/07/02 03:27:46;;;;;;;5.72;1.50;;;21.80;49.50;;;;;;6298579;28;20032;-74
2021/07/02 03:30:47;;;;;;;2.50;1.60;;;21.80;49.60;;;;;;6300308;28;20066;-74
2021/07/02 03:33:48;;;;;;;2.42;1.23;;;21.80;49.60;;;;;;6330664;27;20033;-73
2021/07/02 03:36:50;;;;;;;2.30;1.40;;;21.80;49.70;;;;;;6299691;28;20047;-73
2021/07/02 03:39:52;;;;;;;1.70;1.33;;;21.80;49.60;;;;;;6258137;28;20462;-73
2021/07/02 03:42:54;;;;;;;2.33;1.40;;;21.70;49.70;;;;;;6274791;28;20033;-75
2021/07/02 03:45:56;;;;;;;2.60;1.20;;;21.70;49.70;;;;;;6288566;28;20040;-72
2021/07/02 03:48:57;;;;;;;3.55;1.52;;;21.70;49.70;;;;;;6298467;28;20040;-73
2021/07/02 03:51:58;;;;;;;2.30;1.17;;;21.70;49.70;;;;;;6315477;28;20036;-73
2021/07/02 03:55:00;;;;;;;2.20;1.48;;;21.70;49.80;;;;;;6263522;28;20033;-73
2021/07/02 03:58:03;;;;;;;2.22;1.20;;;21.70;49.90;;;;;;6273886;28;20045;-73
2021/07/02 04:01:05;;;;;;;2.58;1.27;;;21.70;50.00;;;;;;6276195;28;20044;-73
2021/07/02 04:04:06;;;;;;;2.30;1.20;;;21.70;50.00;;;;;;6330468;28;20028;-73
2021/07/02 04:07:12;;;;;;;2.72;1.63;;;21.70;50.10;;;;;;6323324;28;20032;-72
2021/07/02 04:10:13;;;;;;;3.97;1.48;;;21.60;50.40;;;;;;6298276;28;20032;-73
2021/07/02 04:13:15;;;;;;;3.83;1.60;;;21.70;50.50;;;;;;6313729;28;20025;-73
2021/07/02 04:16:16;;;;;;;3.90;1.42;;;21.70;50.60;;;;;;6297754;28;20029;-74
2021/07/02 04:19:21;;;;;;;2.42;1.35;;;21.60;50.70;;;;;;6298586;28;20029;-72
2021/07/02 04:22:22;;;;;;;1.40;1.20;;;21.60;50.70;;;;;;6298443;28;20116;-73
2021/07/02 04:25:23;;;;;;;24.42;2.28;;;21.60;50.80;;;;;;6299082;28;20200;-73
2021/07/02 04:28:25;;;;;;;1.48;1.13;;;21.60;50.80;;;;;;6297658;28;20071;-72
2021/07/02 04:31:26;;;;;;;1.92;1.17;;;21.60;50.80;;;;;;6278982;28;20040;-75
2021/07/02 04:34:27;;;;;;;5.43;1.20;;;21.60;50.70;;;;;;6301925;28;20040;-75
2021/07/02 04:37:29;;;;;;;5.97;1.60;;;21.60;50.70;;;;;;6323187;28;20040;-73
2021/07/02 04:40:31;;;;;;;2.80;1.40;;;21.60;50.70;;;;;;6321721;28;20047;-73
2021/07/02 04:43:32;;;;;;;1.92;1.00;;;21.60;50.90;;;;;;6323296;28;20085;-73
2021/07/02 04:50:56;;;;;;;3.42;1.58;;;21.60;51.00;;;;;;6293915;28;20045;-73
2021/07/02 04:53:57;;;;;;;3.10;1.13;;;21.60;51.10;;;;;;6314982;28;20121;-73
2021/07/02 04:57:00;;;;;;;3.90;1.65;;;21.60;51.50;;;;;;6315501;28;20059;-73
2021/07/02 05:00:02;;;;;;;1.23;0.98;;;21.60;51.60;;;;;;6298563;28;20055;-73
2021/07/02 05:03:04;;;;;;;5.93;1.63;;;21.60;51.70;;;;;;6306844;28;20032;-73
2021/07/02 05:06:09;;;;;;;7.60;1.75;;;21.50;51.90;;;;;;6323846;28;20101;-74
2021/07/02 05:09:10;;;;;;;2.38;1.40;;;21.50;52.10;;;;;;6317115;28;20036;-74
2021/07/02 05:12:12;;;;;;;4.25;1.60;;;21.50;52.10;;;;;;6298067;28;20484;-74
2021/07/02 05:15:13;;;;;;;3.58;1.67;;;21.50;52.10;;;;;;6314157;28;20037;-74
2021/07/02 05:18:14;;;;;;;5.30;1.60;;;21.50;52.00;;;;;;6297633;28;20032;-74
2021/07/02 05:21:16;;;;;;;7.53;1.98;;;21.50;52.00;;;;;;6289300;28;20057;-72
2021/07/02 05:24:17;;;;;;;3.08;1.55;;;21.50;52.00;;;;;;6272757;28;20477;-73
2021/07/02 05:27:18;;;;;;;2.05;1.50;;;21.50;52.00;;;;;;6281066;28;20029;-73
2021/07/02 05:30:20;;;;;;;5.32;1.55;;;21.60;52.00;;;;;;6298029;28;20123;-73
2021/07/02 05:33:21;;;;;;;4.10;1.80;;;21.60;51.90;;;;;;6297721;28;20024;-74
2021/07/02 05:36:22;;;;;;;1.80;1.35;;;21.60;51.80;;;;;;6281139;28;20476;-74
2021/07/02 05:39:24;;;;;;;4.10;1.63;;;21.60;51.80;;;;;;6267905;28;20037;-74
2021/07/02 05:42:25;;;;;;;2.55;1.42;;;21.70;51.70;;;;;;6297910;28;20032;-74
2021/07/02 05:45:26;;;;;;;2.38;1.20;;;21.70;51.50;;;;;;6314732;28;20024;-73
2021/07/02 05:48:29;;;;;;;9.88;2.00;;;21.70;51.30;;;;;;6297686;28;20131;-73
2021/07/02 05:51:30;;;;;;;3.20;1.55;;;21.70;51.30;;;;;;6297409;28;20050;-73
2021/07/02 05:54:31;;;;;;;2.80;1.55;;;21.80;51.10;;;;;;6296361;28;20032;-73
2021/07/02 05:57:33;;;;;;;2.20;1.65;;;21.80;50.90;;;;;;6297384;28;20044;-73
2021/07/02 06:00:34;;;;;;;3.45;2.13;;;21.80;50.70;;;;;;6299024;28;20032;-73
2021/07/02 06:03:35;;;;;;;4.18;1.55;;;21.90;50.70;;;;;;6292056;28;20028;-74
2021/07/02 06:06:36;;;;;;;3.05;1.33;;;22.00;50.40;;;;;;6322544;28;20177;-74
2021/07/02 06:09:37;;;;;;;2.83;1.40;;;22.00;50.30;;;;;;6318428;28;20067;-74
2021/07/02 06:12:38;;;;;;;2.58;1.40;;;22.10;50.30;;;;;;6288897;28;20040;-73
2021/07/02 06:15:39;;;;;;;2.45;1.42;;;22.20;50.30;;;;;;6263691;28;20037;-73
2021/07/02 06:18:42;;;;;;;5.55;1.98;;;22.30;50.20;;;;;;6297054;28;20036;-74
2021/07/02 06:21:44;;;;;;;6.28;1.33;;;22.30;50.10;;;;;;6296694;28;20041;-74
2021/07/02 06:24:46;;;;;;;2.45;1.60;;;22.40;50.10;;;;;;6297161;28;20036;-73
2021/07/02 06:27:47;;;;;;;5.63;1.45;;;22.50;50.10;;;;;;6280003;28;20052;-73
2021/07/02 06:30:48;;;;;;;5.80;2.20;;;22.50;50.00;;;;;;6301103;28;20064;-73
2021/07/02 06:33:49;;;;;;;5.53;2.00;;;22.50;50.50;;;;;;6307058;28;20052;-73
2021/07/02 06:36:50;;;;;;;5.68;2.55;;;22.60;49.90;;;;;;6318405;28;20044;-73
2021/07/02 06:39:52;;;;;;;8.38;2.05;;;22.70;49.70;;;;;;6276213;28;20029;-73
2021/07/02 06:42:54;;;;;;;4.22;1.70;;;22.80;49.50;;;;;;6277875;28;20037;-73
2021/07/02 06:45:55;;;;;;;6.03;2.05;;;23.00;49.40;;;;;;6276650;28;20462;-74
2021/07/02 06:48:56;;;;;;;3.80;1.80;;;23.10;49.20;;;;;;6276711;28;20025;-74
2021/07/02 06:51:57;;;;;;;3.08;1.48;;;23.20;49.00;;;;;;6275776;28;20110;-74
2021/07/02 06:54:58;;;;;;;3.00;1.73;;;23.20;48.80;;;;;;6276972;28;20060;-74
2021/07/02 06:58:03;;;;;;;9.73;1.92;;;23.40;48.80;;;;;;6282542;28;20342;-74
2021/07/02 07:01:04;;;;;;;4.15;1.80;;;23.40;48.50;;;;;;6284446;28;20051;-73
2021/07/02 07:04:05;;;;;;;3.55;1.83;;;23.60;48.30;;;;;;6317093;28;20043;-73
2021/07/02 07:07:08;;;;;;;5.70;2.03;;;23.70;48.00;;;;;;6309163;28;20096;-74
2021/07/02 07:10:10;;;;;;;3.92;1.67;;;23.90;47.80;;;;;;6306029;28;20406;-73
2021/07/02 07:13:12;;;;;;;4.03;1.63;;;24.10;47.50;;;;;;6301171;28;20051;-74
2021/07/02 07:16:14;;;;;;;3.30;1.45;;;24.40;46.90;;;;;;6316760;28;20024;-74
2021/07/02 07:19:15;;;;;;;1.95;1.40;;;24.80;45.90;;;;;;6284209;28;20029;-74
2021/07/02 07:22:17;;;;;;;5.05;1.45;;;24.90;45.70;;;;;;6300517;28;20186;-74
2021/07/02 07:25:21;;;;;;;6.13;1.50;;;24.90;45.50;;;;;;6280950;28;20049;-73
2021/07/02 07:28:22;;;;;;;3.78;1.60;;;25.00;45.30;;;;;;6278262;28;20076;-74
2021/07/02 07:31:24;;;;;;;3.55;1.92;;;25.00;45.00;;;;;;6276387;28;20049;-74
2021/07/02 07:37:29;;;;;;;2.67;1.55;;;25.00;45.00;;;;;;6298746;28;20476;-73
2021/07/02 07:40:30;;;;;;;4.85;1.80;;;25.00;44.90;;;;;;6300075;28;20028;-73
2021/07/02 07:43:34;;;;;;;3.75;1.73;;;25.10;44.70;;;;;;6300588;28;20068;-73
2021/07/02 07:46:35;;;;;;;2.85;1.77;;;25.10;44.70;;;;;;6256552;28;20112;-74
2021/07/02 07:49:37;;;;;;;1.83;1.45;;;25.10;44.60;;;;;;6315378;28;20370;-74
2021/07/02 07:52:58;;;;;;;4.32;1.70;;;25.20;44.60;;;;;;6298384;28;20530;-74
2021/07/02 07:55:59;;;;;;;7.65;1.98;;;25.20;44.30;;;;;;6295776;28;20089;-74
2021/07/02 07:59:00;;;;;;;3.15;1.48;;;25.30;44.20;;;;;;6296255;28;20032;-73
2021/07/02 08:02:02;;;;;;;3.28;1.48;;;25.40;43.90;;;;;;6296093;28;20051;-73
2021/07/02 08:05:04;;;;;;;5.88;1.60;;;25.60;43.50;;;;;;6253323;28;20049;-73
2021/07/02 08:08:05;;;;;;;1.83;1.55;;;25.70;43.00;;;;;;6230737;28;20052;-74
2021/07/02 08:11:07;;;;;;;3.25;1.23;;;25.70;42.60;;;;;;6247162;28;20041;-75
2021/07/02 08:14:09;;;;;;;2.80;1.58;;;25.80;42.30;;;;;;6248028;28;20087;-74
2021/07/02 08:17:10;;;;;;;2.92;1.42;;;25.80;42.00;;;;;;6257546;28;20036;-73
2021/07/02 08:20:12;;;;;;;9.27;1.80;;;25.80;41.80;;;;;;6289931;28;20048;-75
2021/07/02 08:23:13;;;;;;;2.85;1.50;;;25.90;41.90;;;;;;6295715;28;20032;-74
2021/07/02 08:26:16;;;;;;;3.53;1.52;;;26.00;41.70;;;;;;6295760;28;20036;-73
2021/07/02 08:29:23;;;;;;;4.80;2.42;;;26.00;41.40;;;;;;6295186;28;20040;-74
2021/07/02 08:32:25;;;;;;;4.90;1.58;;;26.10;41.30;;;;;;6315230;28;20047;-73
2021/07/02 08:35:26;;;;;;;2.38;1.50;;;26.30;41.30;;;;;;6320910;28;20036;-73
2021/07/02 08:38:27;;;;;;;6.20;1.70;;;26.40;41.30;;;;;;6322424;28;21455;-74
2021/07/02 08:41:28;;;;;;;3.60;1.70;;;26.60;40.90;;;;;;6322550;28;20040;-74
2021/07/02 08:44:29;;;;;;;5.35;1.90;;;26.70;40.60;;;;;;6321483;28;20058;-74
2021/07/02 08:47:31;;;;;;;4.00;1.65;;;26.80;40.50;;;;;;6316662;28;20032;-76
2021/07/02 08:50:33;;;;;;;4.18;1.80;;;27.00;40.40;;;;;;6274785;28;20501;-75
2021/07/02 08:53:35;;;;;;;1.92;1.55;;;27.20;40.60;;;;;;6216634;28;2261952;-74
2021/07/02 08:56:36;;;;;;;1.90;1.42;;;27.30;39.40;;;;;;6295881;28;20116;-74
2021/07/02 08:59:38;;;;;;;5.07;1.63;;;27.30;39.40;;;;;;6297877;28;20456;-74
2021/07/02 09:02:41;;;;;;;7.13;2.38;;;27.20;39.70;;;;;;6317240;28;20062;-74
2021/07/02 09:05:45;;;;;;;2.08;1.60;;;27.30;40.00;;;;;;6303294;28;20385;-74
2021/07/02 09:09:15;;;;;;;4.22;1.50;;;27.50;40.10;;;;;;6321578;28;20111;-74
2021/07/02 09:12:20;;;;;;;7.50;2.47;;;27.50;40.10;;;;;;6208893;28;20383;-75
2021/07/02 09:15:21;;;;;;;2.85;1.90;;;27.70;40.10;;;;;;6181396;28;20034;-74
2021/07/02 09:18:33;;;;;;;5.13;2.28;;;27.80;39.80;;;;;;6183124;28;20045;-74
2021/07/02 09:21:35;;;;;;;6.65;3.80;;;27.90;39.40;;;;;;6176561;28;20057;-75
2021/07/02 09:24:44;;;;;;;3.45;1.77;;;27.90;39.30;;;;;;6192168;28;20632;-73
2021/07/02 09:27:45;;;;;;;6.75;1.80;;;27.90;39.30;;;;;;6162814;28;20034;-74
2021/07/02 09:30:52;;;;;;;6.70;2.15;;;28.00;39.30;;;;;;6187861;28;20034;-74
2021/07/02 09:33:56;;;;;;;5.22;1.80;;;28.00;39.40;;;;;;6196975;28;20030;-74
2021/07/02 09:36:58;;;;;;;4.30;2.30;;;28.00;39.40;;;;;;6192790;28;20038;-75
2021/07/02 09:40:22;;;;;;;6.47;1.90;;;28.20;39.30;;;;;;6195070;28;20049;-74
2021/07/02 09:43:26;;;;;;;2.30;1.70;;;28.20;38.90;;;;;;6194803;28;20460;-74
2021/07/02 09:46:31;;;;;;;3.80;1.65;;;28.20;38.70;;;;;;6177850;28;20066;-74
2021/07/02 09:49:36;;;;;;;1.90;1.63;;;28.30;38.70;;;;;;6259729;28;20033;-76
2021/07/02 09:52:55;;;;;;;2.72;1.70;;;28.40;38.70;;;;;;6277274;28;20037;-74
2021/07/02 09:56:04;;;;;;;3.30;1.40;;;28.50;38.60;;;;;;6295197;28;20036;-74
2021/07/02 09:59:18;;;;;;;2.83;1.33;;;28.60;38.10;;;;;;6294654;28;20033;-74
2021/07/02 10:02:20;;;;;;;2.67;1.45;;;28.60;37.30;;;;;;6298302;28;20329;-75
2021/07/02 10:05:22;;;;;;;2.55;1.65;;;28.70;36.90;;;;;;6320337;28;20492;-74
2021/07/02 10:08:28;;;;;;;3.78;1.65;;;28.70;36.70;;;;;;6320266;28;20028;-73
2021/07/02 10:11:30;;;;;;;3.00;1.73;;;28.70;36.50;;;;;;6312814;28;20040;-75
2021/07/02 10:14:33;;;;;;;2.75;1.52;;;28.70;36.20;;;;;;6294904;28;20128;-73
2021/07/02 10:17:34;;;;;;;1.92;1.48;;;28.80;36.20;;;;;;6277129;28;20063;-74
2021/07/02 10:20:36;;;;;;;3.80;1.40;;;28.90;35.80;;;;;;6311510;28;20025;-74
2021/07/02 10:23:42;;;;;;;2.42;1.38;;;29.00;35.00;;;;;;6293590;28;20414;-75
2021/07/02 10:26:43;;;;;;;5.22;1.58;;;28.90;34.60;;;;;;6296508;28;20032;-74
2021/07/02 10:29:47;;;;;;;2.63;1.60;;;29.00;34.20;;;;;;6293882;28;20049;-74
2021/07/02 10:32:58;;;;;;;4.00;1.35;;;29.00;34.10;;;;;;6300323;28;20457;-74
2021/07/02 10:36:01;;;;;;;3.95;1.20;;;29.00;34.00;;;;;;6303152;28;20075;-74
2021/07/02 10:39:04;;;;;;;3.92;1.52;;;29.10;34.00;;;;;;6281846;28;20450;-74
2021/07/02 10:42:11;;;;;;;8.55;2.03;;;29.20;34.10;;;;;;6295877;28;20033;-75
2021/07/02 10:45:13;;;;;;;4.22;1.27;;;29.20;33.90;;;;;;6290524;28;20101;-74
2021/07/02 10:48:14;;;;;;;4.38;1.25;;;29.30;34.10;;;;;;6295416;28;20330;-75
2021/07/02 10:51:30;;;;;;;5.43;1.90;;;29.30;34.10;;;;;;6294271;28;20115;-74
2021/07/02 10:54:32;;;;;;;4.13;1.30;;;29.40;34.20;;;;;;6295767;28;20093;-75
2021/07/02 10:57:51;;;;;;;2.30;1.30;;;29.50;33.80;;;;;;6294515;28;20041;-75
2021/07/02 11:01:09;;;;;;;3.67;1.95;;;29.60;33.40;;;;;;6295650;28;20043;-75
2021/07/02 11:04:35;;;;;;;2.28;1.70;;;29.70;33.00;;;;;;6328466;28;20111;-75
2021/07/02 11:07:40;;;;;;;2.60;1.70;;;29.80;32.80;;;;;;6291880;28;20106;-73
2021/07/02 11:10:58;;;;;;;3.35;1.75;;;30.30;32.00;;;;;;6318844;28;20032;-73
2021/07/02 11:14:08;;;;;;;3.40;1.33;;;31.90;30.40;;;;;;6306694;28;20480;-75
2021/07/02 11:17:30;;;;;;;2.67;1.45;;;33.30;29.20;;;;;;6294201;28;20043;-74
2021/07/02 11:20:31;;;;;;;3.75;1.33;;;34.60;28.00;;;;;;6284483;28;20041;-74
2021/07/02 11:23:42;;;;;;;3.20;1.40;;;35.70;26.90;;;;;;6284051;28;20120;-75
2021/07/02 11:26:45;;;;;;;7.13;2.15;;;36.30;25.90;;;;;;6274003;28;20139;-73
2021/07/02 11:29:52;;;;;;;1.77;1.40;;;36.70;25.30;;;;;;6289463;28;20056;-75
2021/07/02 11:33:09;;;;;;;6.68;1.40;;;37.20;25.00;;;;;;6304097;28;20063;-75
2021/07/02 11:36:13;;;;;;;2.05;1.17;;;37.60;24.60;;;;;;6294089;28;20033;-75
2021/07/02 11:39:16;;;;;;;2.80;1.42;;;38.00;24.00;;;;;;6272841;28;20033;-75
2021/07/02 11:42:18;;;;;;;2.05;1.40;;;38.30;23.80;;;;;;6309543;28;20111;-74
2021/07/02 11:45:34;;;;;;;3.05;1.20;;;38.50;23.60;;;;;;6297538;28;20051;-74
2021/07/02 11:48:38;;;;;;;4.35;1.77;;;38.90;23.10;;;;;;6294855;28;20033;-75
2021/07/02 11:51:39;;;;;;;2.47;1.50;;;39.30;22.80;;;;;;6280494;28;20033;-75
2021/07/02 11:54:48;;;;;;;5.55;1.80;;;39.60;22.60;;;;;;6313242;28;20041;-75
2021/07/02 11:57:50;;;;;;;1.90;1.40;;;39.70;22.40;;;;;;6296937;28;20024;-73
2021/07/02 12:00:51;;;;;;;1.77;1.23;;;39.90;22.40;;;;;;6296184;28;20396;-75
2021/07/02 12:03:55;;;;;;;2.63;1.92;;;40.10;22.50;;;;;;6311794;28;20425;-75
2021/07/02 12:06:57;;;;;;;4.97;1.92;;;40.20;22.50;;;;;;6321478;28;20077;-73
2021/07/02 12:09:59;;;;;;;2.20;1.30;;;40.20;22.10;;;;;;6321288;28;20040;-75
2021/07/02 12:13:07;;;;;;;6.05;1.67;;;39.90;22.20;;;;;;6322597;28;20039;-75
2021/07/02 12:16:11;;;;;;;2.35;1.33;;;39.70;22.30;;;;;;6298027;28;20174;-74
2021/07/02 12:19:16;;;;;;;6.32;1.40;;;39.60;22.10;;;;;;6297649;28;20032;-75
2021/07/02 12:22:17;;;;;;;5.82;1.50;;;39.30;22.10;;;;;;6297787;28;20366;-74
2021/07/02 12:25:19;;;;;;;1.80;1.15;;;39.30;22.50;;;;;;6295602;28;20039;-75
2021/07/02 12:28:20;;;;;;;7.55;1.90;;;39.20;22.80;;;;;;6268314;28;20040;-75
2021/07/02 12:31:23;;;;;;;4.18;1.80;;;39.40;22.90;;;;;;6273001;28;20374;-75
2021/07/02 12:34:46;;;;;;;6.50;1.90;;;39.70;22.90;;;;;;6312295;28;20036;-75
2021/07/02 12:37:47;;;;;;;2.40;1.60;;;40.10;22.70;;;;;;6320244;28;20067;-74
2021/07/02 12:40:57;;;;;;;1.42;1.33;;;40.10;22.40;;;;;;6321538;28;20123;-75
2021/07/02 12:43:58;;;;;;;2.00;1.70;;;39.90;22.50;;;;;;6320266;28;20032;-74
2021/07/02 12:47:03;;;;;;;1.88;1.52;;;39.90;22.30;;;;;;6320835;28;20350;-75
2021/07/02 12:50:20;;;;;;;7.32;1.60;;;39.80;22.20;;;;;;6319645;28;20127;-74
2021/07/02 12:56:42;;;;;;;3.08;1.38;;;39.90;22.00;;;;;;6302940;28;20036;-75
2021/07/02 12:59:59;;;;;;;4.65;1.85;;;39.90;21.70;;;;;;6294448;28;20032;-75
2021/07/02 13:03:05;;;;;;;3.35;2.00;;;40.10;21.50;;;;;;6317533;28;20125;-73
2021/07/02 13:06:13;;;;;;;1.63;1.42;;;40.40;21.20;;;;;;6301763;28;20032;-75
2021/07/02 13:09:25;;;;;;;5.18;1.80;;;40.50;21.10;;;;;;6312558;28;20036;-75
2021/07/02 13:12:26;;;;;;;1.80;1.25;;;40.80;20.90;;;;;;6317085;28;20092;-75
2021/07/02 13:15:28;;;;;;;3.17;1.63;;;41.40;20.40;;;;;;6317318;28;20074;-75
2021/07/02 13:18:40;;;;;;;1.73;1.40;;;42.00;19.80;;;;;;6295190;28;20036;-75
2021/07/02 13:21:41;;;;;;;4.13;1.90;;;42.50;19.60;;;;;;6294024;28;20056;-75
2021/07/02 13:24:44;;;;;;;4.05;1.73;;;43.10;19.10;;;;;;6295854;28;20094;-74
2021/07/02 13:27:57;;;;;;;2.05;1.85;;;43.60;18.50;;;;;;6297943;28;20040;-75
2021/07/02 13:31:19;;;;;;;7.05;1.52;;;44.10;18.30;;;;;;6294660;28;20484;-75
2021/07/02 13:34:23;;;;;;;1.77;1.60;;;44.70;17.70;;;;;;6294907;28;20395;-74
2021/07/02 13:37:31;;;;;;;2.65;1.48;;;45.10;17.40;;;;;;6286466;28;20052;-75
2021/07/02 13:40:47;;;;;;;5.03;1.52;;;45.50;17.20;;;;;;6295867;28;20033;-75
2021/07/02 13:43:59;;;;;;;3.08;1.42;;;45.90;16.30;;;;;;6318863;28;20449;-75
2021/07/02 13:47:10;;;;;;;11.85;1.90;;;45.90;16.40;;;;;;6299184;28;20032;-75
2021/07/02 13:50:12;;;;;;;2.08;1.67;;;46.10;16.20;;;;;;6301782;28;20567;-73
2021/07/02 13:53:15;;;;;;;4.57;1.48;;;46.40;16.00;;;;;;6318427;28;20461;-74
2021/07/02 13:56:16;;;;;;;4.10;1.60;;;46.60;15.70;;;;;;6311630;28;20363;-74
2021/07/02 13:59:19;;;;;;;6.32;3.05;;;47.00;15.30;;;;;;6294692;28;20032;-74
2021/07/02 14:02:20;;;;;;;3.60;2.08;;;47.30;15.40;;;;;;6294557;28;21117;-75
2021/07/02 14:05:21;;;;;;;2.00;1.52;;;47.80;15.20;;;;;;6317574;28;20040;-74
2021/07/02 14:08:22;;;;;;;4.53;1.30;;;48.00;15.10;;;;;;6301192;28;20032;-75
2021/07/02 14:11:24;;;;;;;4.43;1.63;;;48.10;14.70;;;;;;6317760;28;20128;-75
2021/07/02 14:14:25;;;;;;;1.38;1.27;;;48.00;14.80;;;;;;6299619;28;20040;-73
2021/07/02 14:17:26;;;;;;;2.10;1.48;;;48.10;14.80;;;;;;6318262;28;20036;-73
2021/07/02 14:20:28;;;;;;;3.63;1.83;;;48.10;14.70;;;;;;6297105;28;20378;-73
2021/07/02 14:23:29;;;;;;;19.13;1.73;;;48.40;14.70;;;;;;6250691;28;20426;-74
2021/07/02 14:26:30;;;;;;;1.27;1.17;;;48.70;14.50;;;;;;6268753;28;20044;-74
2021/07/02 14:29:32;;;;;;;1.80;1.40;;;48.80;14.30;;;;;;6292829;28;20071;-74
2021/07/02 14:32:33;;;;;;;2.30;1.52;;;48.60;14.30;;;;;;6280458;28;20060;-74
2021/07/02 14:35:34;;;;;;;1.73;1.48;;;48.70;14.30;;;;;;6299237;28;20433;-74
2021/07/02 14:38:36;;;;;;;5.40;1.60;;;48.90;14.30;;;;;;6317253;28;20062;-75
2021/07/02 14:41:37;;;;;;;4.45;1.75;;;48.80;14.80;;;;;;6316895;28;20111;-75
2021/07/02 14:44:38;;;;;;;3.30;1.38;;;48.80;14.10;;;;;;6316324;28;20481;-75
2021/07/02 14:47:40;;;;;;;2.55;1.40;;;48.50;14.20;;;;;;6283972;28;20028;-74
2021/07/02 14:50:41;;;;;;;1.65;1.55;;;47.40;15.10;;;;;;6318292;28;20036;-74
2021/07/02 14:53:43;;;;;;;2.05;1.40;;;46.40;15.20;;;;;;6318263;28;20445;-74
2021/07/02 14:56:49;;;;;;;4.90;1.30;;;45.80;15.50;;;;;;6297827;28;20036;-74
2021/07/02 14:59:50;;;;;;;8.80;1.50;;;45.30;15.90;;;;;;6296534;28;20033;-74
2021/07/02 15:02:51;;;;;;;4.00;2.95;;;44.80;15.90;;;;;;6305375;28;20032;-74
2021/07/02 15:05:52;;;;;;;4.63;1.38;;;44.50;16.00;;;;;;6323854;28;20321;-74
2021/07/02 15:08:53;;;;;;;1.33;1.17;;;44.20;16.20;;;;;;6322290;28;20063;-74
2021/07/02 15:11:55;;;;;;;1.48;1.38;;;43.90;16.40;;;;;;6283294;28;20373;-74
2021/07/02 15:14:56;;;;;;;2.40;1.27;;;44.00;16.40;;;;;;6296710;28;20032;-74
2021/07/02 15:17:57;;;;;;;1.27;1.10;;;43.50;17.00;;;;;;6280110;28;20025;-74
2021/07/02 15:20:59;;;;;;;2.35;1.40;;;42.90;17.10;;;;;;6297544;28;20044;-75
2021/07/02 15:24:00;;;;;;;2.95;1.50;;;43.20;17.00;;;;;;6295717;28;20055;-74
2021/07/02 15:27:01;;;;;;;2.47;1.80;;;43.60;16.80;;;;;;6271325;28;20033;-74
2021/07/02 15:30:36;;;;;;;1.67;1.40;;;43.30;16.80;;;;;;6272464;28;20120;-74
2021/07/02 15:33:39;;;;;;;5.55;1.42;;;42.30;17.40;;;;;;6292079;28;20058;-75
2021/07/02 15:36:40;;;;;;;2.45;1.30;;;41.20;18.10;;;;;;6303787;28;20040;-74
2021/07/02 15:39:41;;;;;;;3.88;1.48;;;40.50;18.70;;;;;;6301840;28;20449;-74
2021/07/02 15:42:43;;;;;;;3.17;1.70;;;40.20;18.90;;;;;;6295526;28;20124;-74
2021/07/02 15:45:46;;;;;;;3.55;1.70;;;39.70;19.00;;;;;;6295394;28;20029;-73
2021/07/02 15:48:47;;;;;;;4.35;1.52;;;39.20;19.40;;;;;;6295880;28;20086;-75
2021/07/02 15:51:49;;;;;;;2.92;1.50;;;38.40;20.10;;;;;;6295188;28;20127;-74
2021/07/02 15:54:50;;;;;;;1.73;1.40;;;37.70;20.60;;;;;;6306059;28;20570;-74
2021/07/02 15:57:51;;;;;;;3.33;1.60;;;37.30;21.20;;;;;;6294739;28;20047;-74
2021/07/02 16:00:53;;;;;;;1.85;1.58;;;37.20;21.20;;;;;;6294534;28;20131;-75
2021/07/02 16:03:55;;;;;;;3.22;1.73;;;37.30;21.30;;;;;;6270063;28;20045;-74